Terminal Aerodrome Forecast
Issued by NWS

Home | Current Version | Previous Version | Text Only | Print | Product List | Glossary On
Versions: 1 2 3 4 5 6 7 8 9 10 11 12 13 14 15 16 17 18 19 20 21 22 23 24 25 26 27 28 29 30 31 32 33 34 35 36
409
FTUS41 KCAR 241120
TAFFVE
TAF
KFVE 241120Z 2412/2512 33015KT P6SM SKC
     FM242100 34008KT P6SM SCT050
     FM250100 36005KT P6SM SKC=

USA.gov is the U.S. government's official web portal to all federal, state and local government web resources and services.